WetterOnline ( https://www.wetteronline.de )

Wetter aktuell Ulm

Aktuelles Wetter: Ulm-Mähringen (592m)

6-stündlich | Neueste Meldungen
Ortszeit Temperatur Wetter
Sa, 13.04. 2:00 7.0° C wolkig
Fr, 12.04. 20:00 15.3° C leicht bewölkt
Fr, 12.04. 14:00 17.7° C wolkenlos
Fr, 12.04. 8:00 5.2° C fast wolkenlos
Fr, 12.04. 2:00 4.2° C wolkenlos
Do, 11.04. 20:00 13.2° C wolkig
Do, 11.04. 14:00 13.5° C wolkenlos
Do, 11.04. 8:00 1.8° C wolkenlos
Ortszeit Temperatur Wetter
Sa, 13.04. 5:30 4.9° C wolkig
Sa, 13.04. 5:20 4.9° C wolkig
Sa, 13.04. 5:10 5.0° C bedeckt
Sa, 13.04. 5:00 5.0° C wolkig
Sa, 13.04. 4:50 5.0° C wolkig
Sa, 13.04. 4:40 5.0° C bedeckt
Sa, 13.04. 4:30 5.2° C wolkig
Sa, 13.04. 4:00 6.2° C wolkig
Sa, 13.04. 3:30 6.3° C wolkig
Sa, 13.04. 3:00 5.8° C wolkig
Sa, 13.04. 2:30 6.7° C leicht bewölkt
Ortszeit Relative Feuchte Sichtweite
Sa, 13.04. 2:00 87% 35 km
Fr, 12.04. 20:00 55% 50 km
Fr, 12.04. 14:00 44% 50 km
Fr, 12.04. 8:00 86% 26 km
Fr, 12.04. 2:00 90% 30 km
Do, 11.04. 20:00 57% 50 km
Do, 11.04. 14:00 46% 50 km
Do, 11.04. 8:00 90% 35 km
Ortszeit Relative Feuchte Sichtweite
Sa, 13.04. 5:30 92% 27 km
Sa, 13.04. 5:20 92% -
Sa, 13.04. 5:10 93% -
Sa, 13.04. 5:00 91% 28 km
Sa, 13.04. 4:50 91% -
Sa, 13.04. 4:40 91% -
Sa, 13.04. 4:30 90% 30 km
Sa, 13.04. 4:00 88% 30 km
Sa, 13.04. 3:30 88% 30 km
Sa, 13.04. 3:00 89% 30 km
Sa, 13.04. 2:30 87% 30 km
Ortszeit Niederschlagsmenge Niederschlagsart
Sa, 13.04. 2:00 0.0 l/m2 in 6 Std. -
Fr, 12.04. 20:00 0.0 l/m2 in 12 Std. -
Fr, 12.04. 14:00 0.0 l/m2 in 6 Std. -
Fr, 12.04. 8:00 0.0 l/m2 in 12 Std. -
Fr, 12.04. 2:00 0.0 l/m2 in 6 Std. -
Do, 11.04. 20:00 0.0 l/m2 in 3 Std. -
Do, 11.04. 14:00 keine Meldung -
Do, 11.04. 8:00 0.0 l/m2 in 12 Std. -
Ortszeit Niederschlagsmenge Niederschlagsart
Sa, 13.04. 5:30 0.0 l/m2 in 30 Min -
Sa, 13.04. 5:20 keine Meldung -
Sa, 13.04. 5:10 keine Meldung -
Sa, 13.04. 5:00 0.0 l/m2 in 1 Std. -
Sa, 13.04. 4:50 keine Meldung -
Sa, 13.04. 4:40 keine Meldung -
Sa, 13.04. 4:30 0.0 l/m2 in 30 Min -
Sa, 13.04. 4:00 0.0 l/m2 in 1 Std. -
Sa, 13.04. 3:30 0.0 l/m2 in 30 Min -
Sa, 13.04. 3:00 0.0 l/m2 in 1 Std. -
Sa, 13.04. 2:30 0.0 l/m2 in 30 Min -
Ortszeit Stärke Spitze Richtung
km/h Bft. km/h Grad Sektor
Sa, 13.04. 2:00 4 1 14 300° NW
Fr, 12.04. 20:00 11 2 22 340° N
Fr, 12.04. 14:00 7 2 18 100° O
Fr, 12.04. 8:00 4 1 11 250° W
Fr, 12.04. 2:00 4 1 14 210° SW
Do, 11.04. 20:00 4 1 25 160° S
Do, 11.04. 14:00 9 2 28 20° N
Do, 11.04. 8:00 4 1 11 300° NW
Ortszeit Stärke Spitze Richtung
km/h Bft. km/h Grad Sektor
Sa, 13.04. 5:30 4 1 7 260° W
Sa, 13.04. 5:20 4 1 - 260° W
Sa, 13.04. 5:10 4 1 - 280° W
Sa, 13.04. 5:00 4 1 7 270° W
Sa, 13.04. 4:50 4 1 - 270° W
Sa, 13.04. 4:40 4 1 - 270° W
Sa, 13.04. 4:30 4 1 7 280° W
Sa, 13.04. 4:00 4 1 7 300° NW
Sa, 13.04. 3:30 4 1 7 310° NW
Sa, 13.04. 3:00 4 1 4 290° W
Sa, 13.04. 2:30 4 1 4 290° W
Ortszeit Untergrenze Bedeckung Gattung
total tief tief mittel hoch
Sa, 13.04. 2:00 8400 m 8/8 0/8 - - -
Fr, 12.04. 20:00 9000 m 8/8 0/8 - - -
Fr, 12.04. 14:00 - 0/8 0/8 - - -
Fr, 12.04. 8:00 8100 m 2/8 0/8 - - -
Fr, 12.04. 2:00 - 0/8 0/8 - - -
Do, 11.04. 20:00 7800 m 8/8 0/8 - - -
Do, 11.04. 14:00 - 0/8 0/8 - - -
Do, 11.04. 8:00 - 0/8 0/8 - - -
Ortszeit Bedeckungsgrad in Achtel und Wolkenuntergrenze
Sa, 13.04. 5:30 7(7200m)
Sa, 13.04. 5:20 7(7200m)
Sa, 13.04. 5:10 8
Sa, 13.04. 5:00 6(7500m) 8(8400m)
Sa, 13.04. 4:50 6(7500m) 8(8400m)
Sa, 13.04. 4:40 8
Sa, 13.04. 4:30 7(7500m) 7(9000m) 7(9000m)
Sa, 13.04. 4:00 5(8100m) 7(9000m) 8(9000m)
Sa, 13.04. 3:30 2(7800m) 8(9000m) 8(10500m)
Sa, 13.04. 3:00 3(9000m) 7(10500m) 7(10500m)
Sa, 13.04. 2:30 3(10500m) 5(10500m)
Ortszeit Luftdruck NN (hPa) Tendenz (hPa in 3 Std.)
Sa, 13.04. 2:00 1032 - 0,6
Fr, 12.04. 20:00 1030 - 0,3
Fr, 12.04. 14:00 1032 - 0,9
Fr, 12.04. 8:00 1036 + 0,1
Fr, 12.04. 2:00 1036 + 0,3
Do, 11.04. 20:00 1033 + 0,1
Do, 11.04. 14:00 1033 - 0,1
Do, 11.04. 8:00 1035 + 0,8
Ortszeit Luftdruck NN (hPa) Tendenz (hPa in 3 Std.)
Sa, 13.04. 5:30 1032 - 0,3
Sa, 13.04. 5:20 1032 keine Meldung
Sa, 13.04. 5:10 1032 keine Meldung
Sa, 13.04. 5:00 1032 - 0,5
Sa, 13.04. 4:50 1032 keine Meldung
Sa, 13.04. 4:40 1032 keine Meldung
Sa, 13.04. 4:30 1032 - 0,8
Sa, 13.04. 4:00 1032 - 0,9
Sa, 13.04. 3:30 1032 - 1,0
Sa, 13.04. 3:00 1032 - 0,9
Sa, 13.04. 2:30 1032 - 0,8
Ortszeit Schneehöhe (cm)
Sa, 13.04. 2:00 0
Fr, 12.04. 20:00 0
Fr, 12.04. 14:00 0
Fr, 12.04. 8:00 0
Fr, 12.04. 2:00 0
Do, 11.04. 20:00 0
Do, 11.04. 14:00 0
Do, 11.04. 8:00 0
Ortszeit Schneehöhe (cm)
Sa, 13.04. 5:30 0
Sa, 13.04. 5:20 0
Sa, 13.04. 5:10 -
Sa, 13.04. 5:00 0
Sa, 13.04. 4:50 0
Sa, 13.04. 4:40 -
Sa, 13.04. 4:30 0
Sa, 13.04. 4:00 0
Sa, 13.04. 3:30 0
Sa, 13.04. 3:00 0
Sa, 13.04. 2:30 0
Link zu dieser Seite / Seite empfehlen

Das Wetter in ...